x

Frying Pan Shoals, Nc Buoy (41013) Wave Buoy

12:50 - Tue 9th Feb 2016 All times are EST. -5 hours from GMT.

  • Sig Wave height 7.5ft
  • Swell Direction
  • Peak Period 8s
  • Average Period 5s
  • Wind
    16mph, 22mph gusts
  • Sea Temp 61°f
  • Air Temp 51°f
  • Sea Pressure 1004.5mb
  • Frying Pan Shoals, Nc Buoy
  • Frying Pan Shoals, Nc Buoy

More Historic Weather Station data

Upgrade to MSW Pro to gain access to the past 30 days of data for over 8000 Wavebouys and Weather Stations around the globe.

Join Pro

Comparision Forecast

View Surf forecast
   
mar. 02/09 12:50 7.5ft 8s 5s 16 22 mph 1004.5mb 61f 51f
12:40  -   -   -  20 29 mph 1004.8mb 61f 51f
12:30  -   -   -  20 27 mph 1004.6mb 61f 50f
12:20  -   -   -  22 29 mph 1004.5mb 61f 50f
12:10  -   -   -  22 31 mph 1004.5mb 61f 49f
12:00  -   -   -  27 34 mph 1004.8mb 61f 50f
lun. 02/08 11:50 8ft 8s 6s 27 36 mph 1004.6mb 61f 51f
11:40  -   -   -  27 36 mph 1004.4mb 61f 52f
11:30  -   -   -  29 38 mph 1004.1mb - 53f
11:20  -   -   -  25 31 mph 1004mb 62f 53f
11:10  -   -   -  22 31 mph 1004.3mb 62f 53f
11:00  -   -   -  22 29 mph 1004.4mb 62f 53f
10:50 8ft 8s 6s 22 29 mph 1004.8mb 62f 52f
10:40  -   -   -  25 29 mph 1004.6mb 62f 52f
10:30  -   -   -  27 34 mph 1004.8mb 62f 53f
10:20  -   -   -  29 36 mph 1004.8mb 62f 53f
10:10  -   -   -  27 34 mph 1004.8mb 62f 53f
10:00  -   -   -  27 34 mph 1005mb 62f 52f
9:50 9ft 8s 6s 27 36 mph 1005.3mb 62f 52f
9:40  -   -   -  29 38 mph 1005.8mb 62f 51f
9:30  -   -   -  29 38 mph 1005.9mb 62f 51f
9:20  -   -   -  31 38 mph 1006mb 62f 51f
9:10  -   -   -  31 40 mph 1005.8mb 63f 52f
9:00  -   -   -  31 40 mph 1005.8mb 63f 54f
8:50 9ft 8s 6s 29 40 mph 1005.5mb 63f 58f
8:40  -   -   -  29 34 mph 1005.3mb 63f 60f
8:30  -   -   -  27 36 mph 1005.5mb 63f 60f
8:20  -   -   -  27 34 mph 1005.6mb 62f 60f
8:10  -   -   -  27 36 mph 1005.8mb 62f 60f
8:00  -   -   -  29 36 mph 1005.8mb 62f 60f
7:50 9ft 7s 6s 29 38 mph 1005.8mb 62f 60f
7:40  -   -   -  29 36 mph 1005.8mb 62f 60f
7:30  -   -   -  29 36 mph 1005.8mb 62f 59f
7:20  -   -   -  29 38 mph 1005.9mb - 59f
7:10  -   -   -  29 36 mph 1005.9mb 62f 59f
7:00  -   -   -  29 36 mph 1005.8mb 62f 59f
6:50 7.5ft 6s 5s 31 38 mph 1005.8mb 61f 59f
6:40  -   -   -  29 40 mph 1005.8mb 62f 59f
6:30  -   -   -  29 38 mph 1005.8mb 61f 59f
6:20  -   -   -  29 36 mph 1005.8mb 62f 59f
6:10  -   -   -  29 38 mph 1005.6mb 62f 59f
6:00  -   -   -  29 36 mph 1005.8mb 62f 59f
5:50 6ft 6s 5s 27 34 mph 1005.8mb 62f 59f
5:40  -   -   -  27 34 mph 1005.8mb 61f 59f
5:30  -   -   -  25 34 mph 1005.9mb 61f 59f
5:20  -   -   -  27 36 mph 1006mb 61f 58f
5:10  -   -   -  25 34 mph 1006mb 61f 58f
5:00  -   -   -  25 31 mph 1006.1mb 61f 58f
4:50 5.5ft 5s 5s 25 31 mph 1006.3mb 60f 58f
4:40  -   -   -  22 31 mph 1006.5mb 60f 58f
4:30  -   -   -  22 31 mph 1006.5mb 60f 58f
4:20  -   -   -  25 31 mph 1006.6mb 60f 58f
4:10  -   -   -  25 29 mph 1006.8mb 60f 58f
4:00  -   -   -  25 31 mph 1006.6mb 60f 58f
3:50 5ft 4s 4s 25 34 mph 1007mb 60f 58f
3:40  -   -   -  25 29 mph 1006.9mb 59f 57f
3:30  -   -   -  25 31 mph 1007mb 59f 57f
3:20  -   -   -  25 31 mph 1007.3mb 59f 57f
3:10  -   -   -  22 31 mph 1007.4mb 59f 57f
3:00  -   -   -  22 29 mph 1007.5mb 59f 57f
2:50 4ft 9s 5s 22 27 mph 1007.5mb 59f 56f
2:40  -   -   -  22 29 mph 1007.9mb 59f 56f
2:30  -   -   -  22 29 mph 1007.9mb 59f 57f
2:20  -   -   -  22 27 mph 1008.1mb - 57f
2:10  -   -   -  22 29 mph 1008mb 59f 57f
2:00  -   -   -  20 25 mph 1008.1mb 59f 57f
1:50 3.5ft 7s 6s 20 27 mph 1008.1mb 59f 57f
1:40  -   -   -  18 25 mph 1008.5mb 59f 56f
1:30  -   -   -  13 20 mph 1008.8mb 59f 55f
1:20  -   -   -  11 18 mph 1009mb 59f 55f
1:10  -   -   -  9 13 mph 1009.3mb 59f 53f
1:00  -   -   -  7 13 mph 1009.5mb 60f 53f
12:50 4.5ft 9s 6s 4 9 mph 1009.9mb 60f 52f
12:40  -   -   -  4 9 mph 1010.3mb 60f 52f
12:30  -   -   -  2 7 mph 1010.5mb 60f 51f
12:20  -   -   -  2 7 mph 1010.6mb 60f 51f
12:10  -   -   -  2 4 mph 1010.9mb 60f 51f
12:00  -   -   -   -  4 mph 1011mb 60f 51f
11:50 4.5ft 11s 6s  -  4 mph 1011.1mb 60f 50f
11:40  -   -   -  2 7 mph 1011.4mb 61f 49f
11:30  -   -   -  4 7 mph 1011.5mb 61f 49f
11:20  -   -   -  4 9 mph 1011.5mb 61f 49f
11:10  -   -   -  4 9 mph 1011.8mb 61f 49f
11:00  -   -   -  4 9 mph 1012mb 61f 49f
10:50 4.5ft 11s 6s 7 9 mph 1012.1mb 62f 49f
10:40  -   -   -  7 9 mph 1012.3mb 62f 49f
10:30  -   -   -  7 9 mph 1012.3mb 62f 49f
10:20  -   -   -  7 9 mph 1012.1mb 62f 49f
10:10  -   -   -  7 9 mph 1012.1mb 62f 49f
10:00  -   -   -  7 9 mph 1012mb 62f 49f
9:50 5ft 7s 6s 7 11 mph 1012.1mb 62f 48f
9:40  -   -   -  9 13 mph 1012mb 62f 49f
9:30  -   -   -  9 13 mph 1012.1mb 63f 48f
9:20  -   -   -  9 13 mph 1012mb 63f 48f
9:10  -   -   -  9 13 mph 1012.1mb 63f 48f
9:00  -   -   -  11 13 mph 1012mb 63f 48f
8:50 5ft 8s 5s 11 16 mph 1012mb 63f 48f
8:40  -   -   -  11 16 mph 1012.3mb 63f 48f
8:30  -   -   -  13 18 mph 1012.3mb 63f 48f
8:20  -   -   -  13 18 mph 1012.3mb 63f 48f
8:10  -   -   -  13 18 mph 1012.4mb 63f 48f
8:00  -   -   -  16 20 mph 1012.5mb 63f 48f
7:50 6ft 5s 5s 16 20 mph 1012.5mb 63f 48f
7:40 6ft  -  5s 16 22 mph 1012.5mb 64f 48f
7:30  -   -   -  18 22 mph 1012.3mb 64f 48f
7:20  -   -   -  18 22 mph 1012mb 64f 49f
7:10  -   -   -  18 25 mph 1011.8mb 64f 49f
7:00  -   -   -  18 25 mph 1011.5mb 64f 49f
6:50 6ft 6s 5s 20 25 mph 1011.5mb 64f 49f
6:40  -   -   -  18 22 mph 1011.5mb 64f 49f
6:30  -   -   -  20 25 mph 1011.4mb 64f 49f
6:20  -   -   -  20 25 mph 1011.4mb 64f 49f
6:10  -   -   -  20 25 mph 1011.1mb 64f 49f
6:00  -   -   -  20 27 mph 1011.4mb 64f 50f
5:50 7ft 6s 6s 22 27 mph 1011.1mb 64f 49f
5:40 7ft  -  6s 22 27 mph 1011.1mb 64f 49f
5:30  -   -   -  22 29 mph 1011mb - -
5:20  -   -   -  22 27 mph 1011mb 64f 49f
5:10  -   -   -  22 29 mph 1010.9mb 63f 49f
5:00  -   -   -  25 29 mph 1010.8mb 63f 49f
4:50 8ft 6s 6s 22 29 mph 1010.6mb 63f 49f
4:40  -   -   -  25 31 mph 1010.5mb 63f 49f
4:30  -   -   -  25 34 mph 1010.3mb 63f 49f
4:20  -   -   -  25 31 mph 1010.1mb 63f 49f
4:10  -   -   -  25 31 mph 1010mb 63f 49f
4:00  -   -   -  25 31 mph 1009.9mb 63f 49f
3:50 8.5ft 7s 6s 27 31 mph 1009.8mb - 49f
3:40  -   -   -  27 34 mph 1009.6mb 63f 49f
3:30  -   -   -  27 36 mph 1009.6mb 62f 49f
3:20  -   -   -  29 36 mph 1009.5mb 62f 49f
3:10  -   -   -  29 36 mph 1009.5mb 62f 49f
3:00  -   -   -  27 34 mph 1009.5mb 62f 49f
2:50 9ft 7s 6s 27 34 mph 1009.4mb 62f 49f
2:40  -   -   -  27 34 mph 1009.3mb 62f 49f
2:30  -   -   -  27 34 mph 1009.1mb 62f 49f
2:20  -   -   -  27 34 mph 1009mb 61f 49f
2:10  -   -   -  27 34 mph 1009mb 61f 49f
2:00  -   -   -  29 36 mph 1008.9mb 61f 49f
1:50 10ft 7s 6s 29 38 mph 1008.5mb 61f 49f
1:40  -   -   -  29 36 mph 1008.5mb 61f 48f
1:30  -   -   -  29 38 mph 1008.5mb 62f 48f
1:20  -   -   -  29 38 mph 1008.5mb 61f 48f
1:10  -   -   -  29 38 mph 1008.5mb 62f 48f
1:00  -   -   -  31 38 mph 1008.5mb 62f 48f
12:50 11.5ft 7s 6s 31 40 mph 1008.5mb 62f 48f
12:40  -   -   -  31 45 mph 1008.5mb 62f 48f
12:30  -   -   -  31 43 mph 1008.4mb 62f 48f
12:20  -   -   -  31 43 mph 1008.1mb 62f 48f
12:10  -   -   -  34 43 mph 1008.1mb 62f 48f
12:00  -   -   -  31 40 mph 1008mb 63f 48f
dim. 02/07 11:50 12ft 7s 6s 31 40 mph 1007.9mb 63f 48f
11:40  -   -   -  34 43 mph 1007.9mb 63f 48f
11:30  -   -   -  34 43 mph 1007.8mb 63f 48f
11:20  -   -   -  34 43 mph 1007.6mb 63f 47f
11:10  -   -   -  34 45 mph 1007.5mb 64f 48f
11:00  -   -   -  34 43 mph 1007.4mb 64f 48f
10:50 13ft 7s 6s 36 45 mph 1007.3mb 64f 47f
10:40  -   -   -  36 43 mph 1007.3mb 64f 48f
10:30  -   -   -  34 45 mph 1006.8mb 64f 48f
10:20  -   -   -  36 49 mph 1006.5mb - 47f
10:10  -   -   -  36 47 mph 1006.8mb 65f 47f
10:00  -   -   -  38 51 mph 1006.5mb 65f 47f
9:50 14ft 7s 7s 36 49 mph 1006.1mb 65f 47f
9:40  -   -   -  38 49 mph 1006mb 65f 47f
9:30  -   -   -  40 51 mph 1006mb 66f 46f
9:20  -   -   -  38 51 mph 1006mb 66f 46f
9:10  -   -   -  38 49 mph 1005.9mb 66f 46f
9:00  -   -   -  38 49 mph 1005.9mb 66f 46f
8:50 15ft 8s 7s 38 49 mph 1005.5mb 66f 46f
8:40  -   -   -  38 49 mph 1005.4mb 66f 46f
8:30  -   -   -  40 49 mph 1005.4mb 66f 45f
8:20  -   -   -  40 49 mph 1005.1mb 66f 45f
8:10  -   -   -  40 51 mph 1005mb 66f 45f
8:00  -   -   -  40 54 mph 1004.6mb 66f 46f
7:50 15.5ft 8s 7s 40 54 mph 1004.5mb 66f 45f
7:40  -   -   -  43 54 mph 1004.4mb 66f 45f
7:30  -   -   -  43 56 mph 1004.3mb 66f 45f
7:20  -   -   -  43 51 mph 1004.1mb 67f 45f
7:10  -   -   -  45 56 mph 1003.8mb 67f 45f
7:00  -   -   -  45 58 mph 1003.4mb 67f 45f
6:50 15.5ft 7s 7s 45 58 mph 1003.3mb 67f 45f
6:40  -   -   -  45 58 mph 1003mb 67f 44f
6:30  -   -   -  45 60 mph 1002.9mb 67f 44f
6:20  -   -   -  47 58 mph 1002.9mb 67f 44f
6:10  -   -   -  47 58 mph 1002.6mb 67f 44f
6:00  -   -   -  47 60 mph 1002.4mb 67f 44f
5:50 15ft 8s 7s 47 60 mph 1002.1mb 67f 44f
5:40  -   -   -  47 60 mph 1002mb 67f 44f
5:30  -   -   -  47 60 mph 1002mb 67f 44f
5:20  -   -   -  47 58 mph 1002.4mb 67f 44f
5:10  -   -   -  47 60 mph 1002.3mb 67f 44f
5:00  -   -   -  47 58 mph 1002mb 67f 44f
4:50 15ft 7s 7s 47 63 mph 1001.4mb 67f 44f
4:40  -   -   -  47 60 mph 1001.4mb 67f 44f
4:30  -   -   -  45 58 mph 1001.5mb 67f 44f
4:20  -   -   -  47 58 mph 1001.4mb 67f 44f
4:10  -   -   -  45 56 mph 1001.4mb 67f 45f
4:00  -   -   -  45 56 mph 1001.4mb 67f 45f
3:50 15.5ft 7s 7s 43 56 mph 1001.6mb 67f 44f
3:40  -   -   -  43 56 mph 1001.5mb 67f 45f
3:30  -   -   -  43 56 mph 1001.6mb 67f 44f
3:20  -   -   -  43 56 mph 1001.4mb 67f 44f
3:10  -   -   -  45 56 mph 1001.1mb 67f 44f
3:00  -   -   -  45 58 mph 1001.5mb 67f 44f
2:50 13.5ft 7s 7s 43 56 mph 1001.9mb 67f 45f
2:40  -   -   -  43 54 mph 1001.9mb 67f 44f
2:30  -   -   -  43 54 mph 1002.4mb 67f 44f
2:20  -   -   -  43 54 mph 1002.6mb 67f 44f
2:10  -   -   -  40 51 mph 1003mb 67f 44f
2:00  -   -   -  40 56 mph 1003.1mb 67f 45f
1:50 13ft 7s 6s 45 56 mph - 67f 45f
1:40 13ft  -  6s 43 54 mph 1003.6mb 67f 44f
1:30  -   -   -  40 56 mph 1004mb 67f 45f
1:20  -   -   -  43 51 mph 1004.1mb - 46f
1:10  -   -   -  43 54 mph 1004.3mb 67f 46f
1:00  -   -   -  43 56 mph 1004.1mb 67f 46f
12:50 14ft 7s 6s 43 56 mph 1003.9mb 67f 46f
12:40  -   -   -  43 56 mph 1004mb 67f 47f
12:30  -   -   -  43 56 mph 1004mb 67f 46f
12:20  -   -   -  45 58 mph 1004.4mb 67f 46f
12:10  -   -   -  45 58 mph 1004.1mb 67f 46f
12:00  -   -   -  45 54 mph 1004.1mb 67f 46f
11:50 13.5ft 8s 6s 45 58 mph 1004.4mb 67f 46f
11:40  -   -   -  43 51 mph 1005mb 67f 46f
11:30  -   -   -  40 54 mph 1005.8mb 67f 46f
11:20  -   -   -  43 54 mph 1005.8mb 67f 46f
11:10  -   -   -  40 51 mph 1005.9mb 67f 47f
11:00  -   -   -  40 49 mph 1006.1mb 67f 48f
10:50 12ft 9s 6s 38 51 mph 1006.8mb 67f 48f
10:40  -   -   -  38 49 mph 1007.1mb 67f 49f
10:30  -   -   -  40 54 mph 1006.1mb 67f 49f
10:20  -   -   -  38 49 mph 1006.5mb 67f 49f
10:10  -   -   -  40 51 mph 1006.5mb 68f 50f
10:00  -   -   -  40 51 mph 1006.5mb 67f 50f
9:50 12.5ft 9s 6s 38 49 mph 1006.6mb 67f 50f
9:40  -   -   -  38 47 mph 1007mb 67f 51f
9:30  -   -   -  38 49 mph 1006.9mb 67f 51f
9:20  -   -   -  38 47 mph 1007.5mb 67f 51f
9:10  -   -   -  38 47 mph 1008.5mb 67f 51f
9:00  -   -   -  38 49 mph 1008.5mb - -
8:50 12.5ft 8s 6s 40 49 mph 1008mb 68f 52f
8:40  -   -   -  38 47 mph 1008.3mb 68f 53f
8:30  -   -   -  36 49 mph 1009.3mb 68f 52f
8:20  -   -   -  38 49 mph 1009.5mb 68f 52f
8:10  -   -   -  38 47 mph 1009mb 68f 52f
8:00  -   -   -  38 47 mph 1009.9mb 68f 51f
7:50 13ft 8s 6s 36 47 mph 1010.3mb 68f 51f
7:40  -   -   -  36 47 mph 1010.5mb 68f 51f
7:30  -   -   -  38 47 mph 1010.3mb 68f 51f
7:20  -   -   -  38 47 mph 1010.5mb 68f 52f
7:10  -   -   -  38 49 mph 1010.5mb 68f 52f
7:00  -   -   -  36 47 mph 1010.9mb 69f 52f
6:50 13.5ft 8s 7s 36 49 mph 1011.4mb 69f 52f
6:40  -   -   -  36 45 mph 1010.9mb 69f 52f
6:30  -   -   -  36 47 mph 1010.9mb 69f 52f
6:20  -   -   -  36 47 mph 1011.3mb 69f 51f
6:10  -   -   -  38 49 mph 1010.6mb 69f 51f
6:00  -   -   -  38 47 mph 1010.6mb 69f 51f
5:50 12.5ft 8s 6s 38 49 mph 1010.4mb 69f 51f
5:40  -   -   -  38 45 mph 1011.6mb 69f 51f
5:30  -   -   -  38 49 mph 1011.9mb 69f 51f
5:20  -   -   -  36 47 mph 1011.5mb 69f 51f
5:10  -   -   -  38 49 mph 1012mb 68f 50f
5:00  -   -   -  38 47 mph 1012.8mb 68f 50f
4:50 11ft 7s 6s 36 45 mph 1012.9mb 68f 50f
4:40  -   -   -  36 45 mph 1012.9mb 68f 50f
4:30  -   -   -  38 47 mph 1013.3mb 68f 49f
4:20  -   -   -  36 47 mph 1013.9mb 68f 49f
4:10  -   -   -  36 47 mph 1014.5mb 68f 49f
4:00  -   -   -  38 47 mph 1014mb 68f 49f
3:50 11ft 7s 6s 38 47 mph 1013.6mb 68f 49f
3:40  -   -   -  36 47 mph 1013.6mb 68f 49f
3:30  -   -   -  36 45 mph 1014.3mb 68f 49f
3:20  -   -   -  38 47 mph 1014.3mb 68f 49f
3:10  -   -   -  40 49 mph 1014mb 68f 49f
3:00  -   -   -  38 47 mph 1013.8mb 68f 49f
2:50 9.5ft 7s 6s 38 49 mph 1014.5mb 68f 49f
2:40  -   -   -  38 47 mph 1015mb 68f 49f
2:30  -   -   -  36 47 mph 1015.5mb 68f 49f
2:20  -   -   -  38 49 mph 1015.5mb 68f 49f
2:10  -   -   -  38 51 mph 1015.4mb 68f 49f
2:00  -   -   -  38 49 mph 1014.3mb 68f 49f
1:50 9ft 7s 6s 38 49 mph 1015.5mb 68f 48f
1:40 9ft  -  6s 36 47 mph 1016.5mb 68f 48f
1:30  -   -   -  36 45 mph 1016.5mb 68f 48f
1:20  -   -   -  36 45 mph 1016.5mb 68f 48f
1:10  -   -   -  34 43 mph 1017mb 68f 49f
1:00  -   -   -  34 43 mph 1017.5mb 68f 49f
12:50 8.5ft 6s 5s 34 43 mph 1017.8mb 68f 49f
12:40  -   -   -  34 40 mph 1017.6mb 68f 50f
12:30  -   -   -  34 40 mph 1017.4mb 68f 51f
12:20  -   -   -  34 40 mph 1018mb 68f 51f
12:10  -   -   -  34 40 mph 1018.5mb 68f 52f
12:00  -   -   -  31 40 mph 1018mb 68f 52f
sam. 02/06 11:50 7.5ft 7s 5s 31 38 mph 1018.4mb 68f 53f
11:40  -   -   -  31 38 mph 1018.5mb 68f 53f
11:30  -   -   -  31 36 mph 1018.3mb 68f 53f
11:20  -   -   -  29 36 mph 1018.5mb - 53f
11:10  -   -   -  27 34 mph 1019.3mb 68f 55f
11:00  -   -   -  27 31 mph 1020mb 68f 55f
10:50 7.5ft 7s 5s 25 31 mph 1020.1mb 69f 55f
10:40  -   -   -  25 29 mph 1020.3mb 69f 55f
10:30  -   -   -  27 34 mph 1020.3mb 69f 55f
10:20  -   -   -  27 31 mph 1020mb 69f 55f
10:10  -   -   -  27 34 mph 1020mb 69f 55f
10:00  -   -   -  27 34 mph 1020mb 69f 55f
9:50 7ft 6s 5s 27 34 mph 1020mb 69f 55f
9:40  -   -   -  27 34 mph 1020mb 69f 55f
9:30  -   -   -  27 36 mph 1020.1mb 69f 55f
9:20  -   -   -  29 36 mph 1020.4mb 69f 55f
9:10  -   -   -  29 34 mph 1020.5mb 69f 55f
9:00  -   -   -  27 34 mph 1021.1mb 68f 55f
8:50 7ft 6s 5s 27 34 mph 1021.5mb 68f 55f
8:40  -   -   -  27 34 mph 1021.5mb 68f 55f
8:30  -   -   -  27 31 mph 1022.1mb 68f 55f
8:20  -   -   -  27 34 mph 1022.3mb 68f 55f
8:10  -   -   -  27 34 mph 1022mb 68f 55f
8:00  -   -   -  27 34 mph 1021.8mb 68f 55f
7:50 6ft 5s 5s 27 36 mph 1021.9mb 68f 55f
7:40  -   -   -  27 34 mph 1022mb 68f 54f
7:30  -   -   -  25 31 mph 1022.3mb 68f 55f
7:20  -   -   -  25 31 mph 1022.4mb 68f 55f
7:10  -   -   -  25 31 mph 1022.5mb 68f 54f
7:00  -   -   -  25 31 mph 1022.5mb 68f 54f
6:50 6ft 5s 5s 25 31 mph 1022.5mb 68f 54f
6:40  -   -   -  25 31 mph 1022.5mb 68f 54f
6:30  -   -   -  25 31 mph 1022.5mb 68f 54f
6:20  -   -   -  25 31 mph 1022.6mb 68f 54f
6:10  -   -   -  25 31 mph 1022.9mb 68f 54f
6:00  -   -   -  27 31 mph 1022.9mb 68f 54f
5:50 6ft 6s 5s 27 31 mph 1023mb 68f 54f
5:40  -   -   -  25 31 mph 1023.5mb 68f 54f
5:30  -   -   -  25 29 mph 1023.4mb 68f 54f
5:20  -   -   -  25 29 mph 1023.8mb 68f 54f
5:10  -   -   -  22 29 mph 1023.9mb 68f 54f
5:00  -   -   -  22 29 mph 1024mb 68f 54f
4:50 6ft 6s 5s 22 29 mph 1023.9mb 68f 54f
4:40  -   -   -  20 27 mph 1024mb 68f 54f
4:30  -   -   -  20 25 mph 1024mb 68f 54f
4:20  -   -   -  20 27 mph 1024.2mb 68f 54f
4:10  -   -   -  20 25 mph 1024mb 68f 54f
4:00  -   -   -  20 27 mph 1023.8mb 68f 55f
3:50 5.5ft 6s 5s 20 25 mph 1023.9mb 68f 54f
3:40  -   -   -  20 27 mph 1024mb 68f 54f
3:30  -   -   -  22 27 mph 1024mb 68f 54f
3:20  -   -   -  20 29 mph 1024mb 68f 54f
3:10  -   -   -  20 27 mph 1024mb 68f 54f
3:00  -   -   -  20 27 mph 1024mb 68f 53f
2:50 5.5ft 7s 5s 20 27 mph 1024.2mb 68f 53f
2:40  -   -   -  20 27 mph 1024.3mb 68f 53f
2:30  -   -   -  20 27 mph 1024.3mb 68f 53f
2:20  -   -   -  22 27 mph 1024.3mb 68f 53f
2:10  -   -   -  20 27 mph 1024.5mb 68f 53f
2:00  -   -   -  22 27 mph 1024.7mb 68f 52f
1:50 6ft 10s 5s 20 27 mph 1025mb 68f 52f
1:40  -   -   -  22 29 mph 1025.3mb 68f 52f
1:30  -   -   -  22 29 mph 1025.3mb 68f 52f
1:20  -   -   -  22 29 mph 1025.5mb 68f 52f
1:10  -   -   -  22 29 mph 1025.8mb 68f 52f
1:00  -   -   -  22 27 mph 1026.2mb 68f 52f
12:50 5.5ft 5s 5s 22 27 mph 1026.3mb 68f 52f
12:40  -   -   -  22 27 mph 1026.5mb 68f 51f
12:30  -   -   -  22 27 mph 1026.8mb 68f 51f
12:20  -   -   -  22 29 mph 1027mb 68f 51f
12:10  -   -   -  22 29 mph 1027.2mb 68f 51f
12:00  -   -   -  22 29 mph 1027.3mb 68f 51f
11:50 5.5ft 5s 5s 25 31 mph 1027.3mb 68f 51f
11:40  -   -   -  22 29 mph 1027.7mb 68f 51f
11:30  -   -   -  22 29 mph 1027.8mb 68f 51f
11:20  -   -   -  22 27 mph 1028mb 69f 51f
11:10  -   -   -  22 31 mph 1028.3mb 69f 50f
11:00  -   -   -  22 29 mph 1028.5mb 69f 50f
10:50 5.5ft 5s 5s 22 31 mph 1028.5mb 69f 50f
10:40  -   -   -  22 29 mph 1028.8mb 69f 50f
10:30  -   -   -  25 29 mph 1028.8mb 69f 50f
10:20  -   -   -  22 29 mph 1028.8mb 69f 50f
10:10  -   -   -  25 31 mph 1028.8mb 69f 50f
10:00  -   -   -  22 31 mph 1029mb 69f 50f
9:50 5.5ft 5s 5s 22 29 mph 1029mb 69f 50f
9:40  -   -   -  22 29 mph 1029mb 69f 50f
9:30  -   -   -  25 31 mph 1028.8mb 69f 50f
9:20  -   -   -  25 31 mph 1028.5mb 69f 50f
9:10  -   -   -  25 31 mph 1028.3mb 69f 50f
9:00  -   -   -  25 31 mph 1028.5mb 69f 50f
8:50 5ft 5s 5s 22 29 mph 1028.7mb 69f 50f
8:40  -   -   -  25 29 mph 1028.5mb 69f 50f
8:30  -   -   -  25 31 mph 1028.5mb 69f 50f
8:20  -   -   -  22 29 mph 1028.5mb 69f 51f
8:10  -   -   -  22 29 mph 1028.3mb 69f 50f
8:00  -   -   -  25 29 mph 1028.3mb 69f 50f
7:50 6ft 11s 5s 25 29 mph 1028.3mb 69f 50f
7:40  -   -   -  25 31 mph 1028.2mb 69f 50f
7:30  -   -   -  22 29 mph 1028mb 69f 50f
7:20  -   -   -  25 31 mph 1027.8mb 69f 50f
7:10  -   -   -  22 31 mph 1027.8mb 69f 50f
7:00  -   -   -  22 29 mph 1027.8mb 69f 51f
6:50 5ft 11s 5s 22 29 mph 1027.8mb 69f 51f
6:40  -   -   -  25 29 mph 1027.8mb 69f 51f
6:30  -   -   -  22 31 mph 1027.7mb 69f 51f
6:20  -   -   -  22 29 mph 1027.5mb 69f 51f
6:10  -   -   -  22 31 mph 1027.3mb 69f 51f
6:00  -   -   -  20 27 mph 1027mb 69f 51f
5:50 4.5ft 11s 5s 22 27 mph 1027mb 69f 51f
5:40  -   -   -  20 27 mph 1027mb 69f 52f
5:30  -   -   -  20 27 mph 1027mb 69f 51f
5:20  -   -   -  20 27 mph 1027mb 69f 52f
5:10  -   -   -  20 27 mph 1027mb 69f 51f
5:00  -   -   -  20 27 mph 1026.8mb 69f 51f
4:50 4.5ft 11s 5s 20 25 mph 1026.7mb 69f 51f
4:40  -   -   -  18 25 mph 1026.5mb 69f 51f
4:30  -   -   -  18 25 mph 1026.8mb 69f 51f
4:20  -   -   -  18 25 mph 1026.8mb 69f 51f
4:10  -   -   -  18 22 mph 1027mb 69f 51f
4:00  -   -   -  20 25 mph 1027mb 69f 50f
3:50 4.5ft 11s 5s 16 25 mph 1027.2mb 69f 50f
3:40  -   -   -  18 25 mph 1027.3mb 69f 50f
3:30  -   -   -  16 22 mph 1027.2mb 69f 50f
3:20  -   -   -  16 20 mph 1027.3mb 69f 50f
3:10  -   -   -  16 25 mph 1027.3mb 69f 50f
3:00  -   -   -  16 22 mph 1027.3mb 69f 50f
2:50 4.5ft 11s 5s 18 25 mph 1027.3mb 69f 50f
2:40  -   -   -  16 22 mph 1027.5mb 69f 50f
2:30  -   -   -  16 22 mph 1027.5mb 69f 50f
2:20  -   -   -  16 25 mph 1027.7mb 69f 50f
2:10  -   -   -  16 22 mph 1028mb 69f 50f
2:00  -   -   -  16 22 mph 1028.2mb 69f 50f
1:50 4.5ft 11s 5s 18 25 mph 1028mb 69f 50f
1:40  -   -   -  18 25 mph 1028mb 69f 50f
1:30  -   -   -  16 25 mph 1028.2mb 69f 50f
1:20  -   -   -  18 27 mph 1028.2mb 69f 50f
1:10  -   -   -  18 25 mph 1028.2mb 69f 50f
1:00  -   -   -  18 22 mph 1028.3mb 69f 50f
12:50 4.5ft 10s 5s 18 22 mph 1028.5mb 69f 50f
12:40  -   -   -  16 22 mph 1028.7mb 69f 49f
12:30  -   -   -  16 20 mph 1028.7mb 69f 49f
12:20  -   -   -  16 22 mph 1028.7mb 69f 49f
12:10  -   -   -  16 20 mph 1028.8mb 69f 49f
12:00  -   -   -  16 20 mph 1029mb 69f 50f
ven. 02/05 11:50 5ft 10s 5s 16 20 mph 1028.8mb 69f 49f
11:40  -   -   -  16 20 mph 1028.8mb 69f 50f
11:30  -   -   -  16 22 mph 1029mb 69f 49f
11:20  -   -   -  13 22 mph 1029mb 69f 49f
11:10  -   -   -  16 20 mph 1029mb 69f 49f
11:00  -   -   -  13 22 mph 1028.8mb 70f 49f
10:50 4.5ft 10s 5s 16 22 mph 1028.8mb - 49f
10:40  -   -   -  16 22 mph 1028.7mb 70f 49f
10:30  -   -   -  13 22 mph 1028.8mb 70f 49f
10:20  -   -   -  16 22 mph 1028.7mb 70f 49f
10:10  -   -   -  13 22 mph 1028.7mb 70f 49f
10:00  -   -   -  16 22 mph 1028.8mb 70f 49f
9:50 4.5ft 5s 5s 13 22 mph 1028.8mb - 49f
9:40  -   -   -  16 22 mph 1028.8mb 70f 49f
9:30  -   -   -  16 27 mph 1028.8mb 70f 49f
9:20  -   -   -  13 20 mph 1029mb 70f 49f
9:10  -   -   -  16 27 mph 1028.7mb 70f 49f
9:00  -   -   -  18 22 mph 1028.3mb 70f 50f
8:50 4.5ft 10s 5s 18 25 mph 1028.3mb 70f 49f
8:40  -   -   -  18 22 mph 1028.2mb 70f 50f
8:30  -   -   -  16 25 mph 1028mb 70f 49f
8:20  -   -   -  18 25 mph 1027.8mb 70f 50f
8:10  -   -   -  16 25 mph 1027.7mb 69f 50f
8:00  -   -   -  16 22 mph 1027.7mb 69f 50f
7:50 4.5ft 6s 5s 18 25 mph 1027.5mb 69f 50f
7:40  -   -   -  18 25 mph 1027.3mb 69f 50f
7:30  -   -   -  18 22 mph 1027.3mb 69f 50f
7:20  -   -   -  16 25 mph 1027.3mb 69f 50f
7:10  -   -   -  18 25 mph 1027.3mb 69f 50f
7:00  -   -   -  18 25 mph 1027.3mb 69f 49f
6:50 4.5ft 8s 5s 18 25 mph 1027.3mb 69f 49f
6:40  -   -   -  18 22 mph 1027.3mb 69f 49f
6:30  -   -   -  18 27 mph 1027mb 69f 49f
6:20  -   -   -  16 22 mph 1027mb 69f 49f
6:10  -   -   -  18 22 mph 1027mb 69f 50f
6:00  -   -   -  18 25 mph 1026.8mb 69f 49f
5:50 4.5ft 8s 5s 18 22 mph 1026.8mb 69f 49f
5:40  -   -   -  20 29 mph 1026.3mb 69f 49f
5:30  -   -   -  18 27 mph 1026mb 69f 49f
5:20  -   -   -  18 25 mph 1026mb 68f 49f
5:10  -   -   -  18 25 mph 1025.8mb 67f 49f
5:00  -   -   -  18 27 mph 1025.7mb 67f 49f
4:50 5.5ft 6s 5s 18 25 mph 1025.5mb 67f 49f
4:40  -   -   -  18 25 mph 1025.5mb 67f 48f
4:30  -   -   -  20 27 mph 1025.3mb 66f 48f
4:20  -   -   -  20 27 mph 1025.3mb 66f 48f
4:10  -   -   -  18 27 mph 1025.3mb 66f 48f
4:00  -   -   -  18 25 mph 1025.3mb 66f 48f
3:50 5ft 6s 5s 18 27 mph 1025.2mb 66f 48f
3:40  -   -   -  20 27 mph 1025mb 66f 48f
3:30  -   -   -  20 27 mph 1025mb 66f 48f
3:20  -   -   -  20 25 mph 1025.2mb 66f 48f
3:10  -   -   -  18 25 mph 1025mb 66f 48f
3:00  -   -   -  20 27 mph 1025mb 66f 48f
2:50 5.5ft 6s 5s 20 27 mph 1024.8mb 66f 48f
2:40  -   -   -  20 29 mph 1025mb 66f 48f
2:30  -   -   -  20 29 mph 1025mb 66f 49f
2:20  -   -   -  20 27 mph 1025mb 66f 48f
2:10  -   -   -  20 31 mph 1025.2mb 66f 48f
2:00  -   -   -  20 27 mph 1025mb 66f 48f
1:50 6ft 6s 5s 20 29 mph 1025.2mb 66f 48f
1:40  -   -   -  20 29 mph 1024.8mb 66f 48f
1:30  -   -   -  20 29 mph 1024.8mb 66f 48f
1:20  -   -   -  22 27 mph 1024.7mb 66f 49f
1:10  -   -   -  22 29 mph 1024.7mb 66f 49f
1:00  -   -   -  22 31 mph 1024.7mb - -
12:50 6.5ft 6s 5s 22 31 mph 1024.8mb 66f 48f
12:40  -   -   -  22 29 mph 1024.8mb 66f 49f
12:30  -   -   -  22 29 mph 1025mb 66f 49f
12:20  -   -   -  25 29 mph 1025.2mb 66f 49f
12:10  -   -   -  25 31 mph 1025mb 66f 49f
12:00  -   -   -  25 31 mph 1025mb 66f 48f
11:50 6.5ft 7s 5s 22 31 mph 1025mb 66f 48f
11:40  -   -   -  22 29 mph 1025mb 66f 48f
11:30  -   -   -  22 29 mph 1025.2mb 66f 48f
11:20  -   -   -  20 27 mph 1025.2mb 66f 48f
11:10  -   -   -  20 27 mph 1025.2mb 66f 48f
11:00  -   -   -  20 27 mph 1025mb 66f 48f
10:50 7ft 6s 5s 22 31 mph 1025mb 66f 48f
10:40  -   -   -  25 31 mph 1025.2mb 66f 48f
10:30  -   -   -  25 31 mph 1025mb 66f 48f
10:20  -   -   -  27 34 mph 1025mb 66f 48f
10:10  -   -   -  27 36 mph 1024.8mb 66f 48f
10:00  -   -   -  27 34 mph 1024.8mb 66f 48f
9:50 8ft 7s 5s 27 36 mph 1024.8mb 66f 48f
9:40  -   -   -  27 36 mph 1024.5mb 66f 48f
9:30  -   -   -  29 38 mph 1024.3mb 66f 49f
9:20  -   -   -  31 40 mph 1024.2mb 66f 49f
9:10  -   -   -  29 40 mph 1023.9mb 66f 49f
9:00  -   -   -  27 36 mph 1023.5mb 66f 49f
8:50 7ft 6s 5s 29 36 mph 1023.3mb 66f 49f
8:40  -   -   -  31 40 mph 1023mb 66f 49f
8:30  -   -   -  31 38 mph 1022.6mb 66f 48f
8:20  -   -   -  29 38 mph 1022.5mb 66f 49f
8:10  -   -   -  27 36 mph 1022.1mb 66f 49f
8:00  -   -   -  29 36 mph 1021.8mb 66f 49f
7:50 8ft 5s 5s 29 40 mph 1021.5mb 66f 49f
7:40  -   -   -  29 38 mph 1021mb 66f 50f
7:30  -   -   -  27 34 mph 1020.6mb 66f 50f
7:20  -   -   -  29 38 mph 1020.5mb 66f 50f
7:10  -   -   -  29 40 mph 1020mb 66f 50f
7:00  -   -   -  29 38 mph 1019.6mb 66f 50f
6:50 7ft 5s 5s 29 38 mph 1019.4mb 66f 50f
6:40  -   -   -  29 36 mph 1018.9mb 66f 50f